Pagrindinis puslapis
METAR-TAF:

METAR-TAF

Oro uostai :

Mauricijus, Mauricijus

platuma: 20-26S, ilguma: 057-40E, Aukštis: 55 m

Dabartinis oras

Ataskaita buvo paskelbta 58 minutes, ne 04:00 UTC
Vėjas 11 kt iš Rytų/Pietryčių
Temperatūra 27°C
Drėgmė 74%
Slėgis 1017 hPa
Matomumas 10 km arba daugiau
Išsisklaidę debesys ne aukštis 1500 ft
Išsisklaidę debesys ne aukštis 25000 ft

METAR: FIMP 070400Z 11011KT 9999 SCT015 SCT250 27/22 Q1017

Laikas: 08:58 (04:58 UTC)

Prognozė

Ataskaita buvo paskelbta 5 valandos ir 58 minutes, ne 23:00 UTC
Prognozė galioja nuo 07 metu 00 UTC su 08 metu 06 UTC
Vėjas 10 kt iš Rytų/Pietryčių su gūsio iki 25 kt
Matomumas 10 km arba daugiau
Išsisklaidę debesys ne aukštis 1700 ft
Laikinai
nuo 07 metu 08 UTC su 08 metu 00 UTC
Vėjas 15 kt iš Rytų/Pietryčių su gūsio iki 28 kt
Matomumas: 7000 m
Mažai debesys ne aukštis 1000 ft
Išsisklaidę debesys ne aukštis 1500 ft
Su prošvaistėmis ne aukštis 5000 ft
lietus

TAF: FIMP 062300Z 0700/0806 12010G25KT 9999 SCT017 TEMPO 0708/0800 11015G28KT 7000 -SHRA FEW010 SCT015 BKN050

Orai ataskaitas ir orų prognozės (METAR, TAF).

turimą stotys yra geltonos ir raudonos taškus žemėlapyje.

Perkelti pele per norėdami pamatyti stoties vardą.

Tada spustelėkite, norėdami matyti oro stebėjimo ir prognozės.

Norėdami pakeisti žemėlapį: spustelėkite ant žalios mygtukų su juodo kryžiaus žemyn,; žalią mygtuką su brūkšneliu, jei norite nutolinti; arba žalių rodyklių gretimoms žemėlapius.


METAR-TAF: